Time;durP1;ratioP1;P1;durP2;ratioP2;P2;SDS_P1;SDS_P2;PMS_P1;PMS_P2;Temp;Humidity;BMP_temperature;BMP_pressure;BME280_temperature;BME280_humidity;BME280_pressure;Samples;Min_cycle;Max_cycle;Signal;HPM_P1;HPM_P2
2022/12/25 00:00:53;;;;;;;7.70;2.78;;;;;;;;;;5091841;28;20039;-35
2022/12/25 00:03:19;;;;;;;7.05;2.40;;;;;;;;;;5091823;28;20390;-35
2022/12/25 00:05:47;;;;;;;9.25;2.70;;;;;;;;;;5091719;28;20020;-35
2022/12/25 00:08:13;;;;;;;8.25;2.45;;;;;;;;;;5091805;28;20024;-35
2022/12/25 00:10:40;;;;;;;9.50;2.75;;;;;;;;;;5091656;28;20094;-35
2022/12/25 00:13:07;;;;;;;9.90;2.80;;;;;;;;;;5091776;28;20032;-35
2022/12/25 00:15:34;;;;;;;7.28;2.60;;;;;;;;;;5091827;28;20474;-35
2022/12/25 00:18:01;;;;;;;12.35;3.22;;;;;;;;;;5091694;28;20032;-35
2022/12/25 00:20:28;;;;;;;12.25;3.65;;;;;;;;;;5090394;28;20107;-35
2022/12/25 00:22:56;;;;;;;6.32;3.00;;;;;;;;;;5091617;28;20489;-35
2022/12/25 00:25:23;;;;;;;9.65;3.58;;;;;;;;;;5091484;28;20040;-35
2022/12/25 00:27:50;;;;;;;9.73;3.78;;;;;;;;;;5091684;28;20042;-35
2022/12/25 00:30:17;;;;;;;11.35;3.97;;;;;;;;;;5091582;28;20028;-35
2022/12/25 00:32:44;;;;;;;13.60;4.38;;;;;;;;;;5091508;28;20028;-35
2022/12/25 00:35:11;;;;;;;9.75;4.70;;;;;;;;;;5091614;28;20085;-35
2022/12/25 00:37:37;;;;;;;10.68;4.57;;;;;;;;;;5091567;28;20025;-35
2022/12/25 00:40:05;;;;;;;12.23;4.88;;;;;;;;;;5091570;28;20028;-35
2022/12/25 00:42:31;;;;;;;12.82;4.95;;;;;;;;;;5094171;28;20389;-35
2022/12/25 00:45:00;;;;;;;14.43;5.13;;;;;;;;;;5094982;28;20058;-35
2022/12/25 00:47:27;;;;;;;10.98;4.80;;;;;;;;;;5095075;28;20102;-35
2022/12/25 00:49:54;;;;;;;11.98;5.13;;;;;;;;;;5095109;28;20047;-35
2022/12/25 00:52:21;;;;;;;12.45;5.80;;;;;;;;;;5094937;28;20028;-35
2022/12/25 00:54:47;;;;;;;12.38;6.20;;;;;;;;;;5094882;28;20039;-35
2022/12/25 00:57:14;;;;;;;14.38;7.00;;;;;;;;;;5094946;28;20099;-35
2022/12/25 00:59:41;;;;;;;15.40;6.80;;;;;;;;;;5094902;28;20435;-35
2022/12/25 01:02:23;;;;;;;15.38;6.80;;;;;;;;;;5094829;28;20028;-35
2022/12/25 01:04:52;;;;;;;14.45;7.15;;;;;;;;;;5094735;28;20081;-35
2022/12/25 01:07:19;;;;;;;14.15;7.40;;;;;;;;;;5094720;28;20070;-35
2022/12/25 01:12:32;;;;;;;14.40;7.47;;;;;;;;;;5094736;28;20042;-35
2022/12/25 01:14:59;;;;;;;15.00;7.82;;;;;;;;;;5094609;28;20036;-35
2022/12/25 01:17:26;;;;;;;13.98;8.27;;;;;;;;;;5094536;28;20050;-35
2022/12/25 01:19:53;;;;;;;15.32;8.00;;;;;;;;;;5094536;28;20028;-35
2022/12/25 01:22:20;;;;;;;16.55;8.77;;;;;;;;;;5094329;28;20031;-35
2022/12/25 01:24:47;;;;;;;18.15;8.63;;;;;;;;;;5094360;28;20028;-35
2022/12/25 01:27:14;;;;;;;15.63;8.57;;;;;;;;;;5094412;28;20032;-35
2022/12/25 01:29:41;;;;;;;17.17;8.90;;;;;;;;;;5094315;28;20065;-35
2022/12/25 01:32:08;;;;;;;20.30;9.27;;;;;;;;;;5094209;28;20024;-35
2022/12/25 01:34:35;;;;;;;13.55;8.43;;;;;;;;;;5094255;28;20111;-35
2022/12/25 01:37:02;;;;;;;18.67;10.35;;;;;;;;;;5094148;28;20107;-35
2022/12/25 01:39:29;;;;;;;21.05;9.73;;;;;;;;;;5094160;28;20032;-35
2022/12/25 01:41:56;;;;;;;15.85;9.90;;;;;;;;;;5094053;28;20482;-35
2022/12/25 01:44:36;;;;;;;15.23;10.32;;;;;;;;;;5093762;28;20066;-35
2022/12/25 01:47:03;;;;;;;18.80;10.38;;;;;;;;;;5094022;28;20089;-35
2022/12/25 01:49:31;;;;;;;20.05;10.02;;;;;;;;;;5093943;28;20059;-35
2022/12/25 01:51:58;;;;;;;19.30;9.32;;;;;;;;;;5093868;28;20024;-35
2022/12/25 01:54:26;;;;;;;15.85;10.02;;;;;;;;;;5093791;28;20048;-35
2022/12/25 01:56:55;;;;;;;19.27;10.70;;;;;;;;;;5093793;28;20032;-35
2022/12/25 01:59:24;;;;;;;19.50;10.55;;;;;;;;;;5093691;28;20028;-35
2022/12/25 02:01:51;;;;;;;15.45;10.27;;;;;;;;;;5093602;28;20035;-35
2022/12/25 02:04:37;;;;;;;19.95;11.02;;;;;;;;;;5093533;28;20113;-35
2022/12/25 02:07:09;;;;;;;20.77;10.15;;;;;;;;;;5093555;28;20149;-35
2022/12/25 02:09:37;;;;;;;16.73;10.25;;;;;;;;;;5093573;28;20036;-35
2022/12/25 02:12:04;;;;;;;19.30;10.30;;;;;;;;;;5093438;28;20028;-35
2022/12/25 02:14:33;;;;;;;16.45;9.93;;;;;;;;;;5093385;28;20062;-35
2022/12/25 02:17:09;;;;;;;18.90;10.50;;;;;;;;;;5093378;28;20067;-35
2022/12/25 02:19:45;;;;;;;17.20;10.82;;;;;;;;;;5093375;28;20032;-35
2022/12/25 02:22:38;;;;;;;17.35;10.55;;;;;;;;;;5093250;28;20389;-35
2022/12/25 02:25:09;;;;;;;17.35;9.68;;;;;;;;;;5076952;28;20047;-35
2022/12/25 02:27:52;;;;;;;17.48;10.07;;;;;;;;;;5093147;28;20036;-35
2022/12/25 02:30:19;;;;;;;17.15;10.35;;;;;;;;;;5093167;28;20036;-35
2022/12/25 02:34:01;;;;;;;16.70;10.43;;;;;;;;;;5093071;28;20057;-35
2022/12/25 02:35:38;;;;;;;;;;;;;;;;;;5093438;28;20051;-35
2022/12/25 02:38:09;;;;;;;15.75;10.63;;;;;;;;;;5093087;28;19904;-35
2022/12/25 02:40:40;;;;;;;16.27;10.00;;;;;;;;;;5092912;28;20053;-35
2022/12/25 03:08:36;;;;;;;16.95;10.10;;;;;;;;;;5092739;28;20089;-35
2022/12/25 03:13:51;;;;;;;14.88;10.18;;;;;;;;;;5092388;28;20081;-35
2022/12/25 03:26:53;;;;;;;14.20;9.07;;;;;;;;;;5092574;28;20038;-35
2022/12/25 03:27:20;;;;;;;14.15;9.10;;;;;;;;;;5092227;28;20600;-35
2022/12/25 03:32:39;;;;;;;12.18;9.10;;;;;;;;;;5092076;28;20040;-35
2022/12/25 03:35:24;;;;;;;16.30;9.48;;;;;;;;;;5092175;28;20056;-35
2022/12/25 04:36:21;;;;;;;21.52;10.02;;;;;;;;;;5090433;28;20439;-35
2022/12/25 04:38:48;;;;;;;17.40;10.77;;;;;;;;;;5095404;28;20089;-35
2022/12/25 04:41:15;;;;;;;17.50;10.73;;;;;;;;;;5095280;28;20371;-35
2022/12/25 04:43:42;;;;;;;14.48;10.50;;;;;;;;;;5095216;28;20024;-35
2022/12/25 04:46:09;;;;;;;17.55;10.60;;;;;;;;;;5093777;28;20467;-35
2022/12/25 04:48:36;;;;;;;20.30;10.40;;;;;;;;;;5095277;28;20114;-35
2022/12/25 04:51:10;;;;;;;15.73;10.43;;;;;;;;;;5095045;28;20024;-35
2022/12/25 04:53:37;;;;;;;19.40;10.45;;;;;;;;;;5094873;28;20431;-35
2022/12/25 04:56:04;;;;;;;18.80;10.75;;;;;;;;;;5095125;28;20050;-35
2022/12/25 04:58:31;;;;;;;18.05;10.63;;;;;;;;;;5095053;28;20073;-35
2022/12/25 05:01:02;;;;;;;15.57;10.35;;;;;;;;;;5094895;28;20070;-35
2022/12/25 05:03:29;;;;;;;19.88;11.25;;;;;;;;;;5094898;28;20028;-35
2022/12/25 05:05:56;;;;;;;15.93;10.77;;;;;;;;;;5094851;28;20035;-35
2022/12/25 05:08:23;;;;;;;18.92;11.25;;;;;;;;;;5094794;28;20512;-35
2022/12/25 05:10:51;;;;;;;18.00;10.50;;;;;;;;;;5094847;28;20020;-35
2022/12/25 05:13:18;;;;;;;17.08;10.35;;;;;;;;;;5094726;28;20024;-35
2022/12/25 05:15:45;;;;;;;20.25;9.80;;;;;;;;;;5094660;28;20024;-35
2022/12/25 05:18:12;;;;;;;17.38;11.07;;;;;;;;;;5094668;28;20020;-35
2022/12/25 05:20:39;;;;;;;18.90;10.88;;;;;;;;;;5094548;28;20024;-35
2022/12/25 05:23:06;;;;;;;19.80;10.50;;;;;;;;;;5094593;28;20034;-35
2022/12/25 05:25:32;;;;;;;25.83;10.98;;;;;;;;;;5094416;28;20432;-35
2022/12/25 05:28:00;;;;;;;18.52;9.90;;;;;;;;;;5094130;28;20080;-35
2022/12/25 05:30:26;;;;;;;17.25;10.20;;;;;;;;;;5094321;28;20024;-35
2022/12/25 05:32:53;;;;;;;18.73;10.10;;;;;;;;;;5094407;28;20031;-35
2022/12/25 05:35:20;;;;;;;19.40;9.70;;;;;;;;;;5094311;28;20157;-35
2022/12/25 05:37:47;;;;;;;16.80;9.98;;;;;;;;;;5094289;28;20028;-35
2022/12/25 05:40:14;;;;;;;21.50;10.88;;;;;;;;;;5094168;28;20119;-35
2022/12/25 05:42:41;;;;;;;17.27;9.90;;;;;;;;;;5094166;28;20428;-35
2022/12/25 05:45:08;;;;;;;22.33;10.30;;;;;;;;;;5093855;28;20066;-35
2022/12/25 05:47:35;;;;;;;23.20;10.00;;;;;;;;;;5094008;28;20024;-35
2022/12/25 05:50:03;;;;;;;23.70;11.30;;;;;;;;;;5093911;28;20390;-35
2022/12/25 05:52:33;;;;;;;19.90;10.02;;;;;;;;;;5093846;28;20032;-35
2022/12/25 05:55:00;;;;;;;21.10;10.52;;;;;;;;;;5093820;28;20036;-35
2022/12/25 05:57:31;;;;;;;21.08;9.90;;;;;;;;;;5093900;28;20020;-35
2022/12/25 05:59:58;;;;;;;26.17;10.43;;;;;;;;;;5093868;28;20022;-35
2022/12/25 06:02:25;;;;;;;24.77;10.82;;;;;;;;;;5091060;28;20589;-35
2022/12/25 06:04:52;;;;;;;28.70;10.63;;;;;;;;;;5093022;28;20032;-35
2022/12/25 06:07:19;;;;;;;33.13;11.30;;;;;;;;;;5093454;28;20039;-35
2022/12/25 06:09:46;;;;;;;21.75;10.05;;;;;;;;;;5093528;28;20024;-35
2022/12/25 06:12:13;;;;;;;23.58;10.40;;;;;;;;;;5093488;28;20027;-35
2022/12/25 06:14:40;;;;;;;28.80;10.48;;;;;;;;;;5093559;28;20036;-35
2022/12/25 06:17:07;;;;;;;24.42;10.30;;;;;;;;;;5093459;28;20576;-35
2022/12/25 06:19:34;;;;;;;30.02;10.23;;;;;;;;;;5093494;28;20041;-35
2022/12/25 06:22:01;;;;;;;28.13;10.13;;;;;;;;;;5093320;28;20032;-35
2022/12/25 06:24:28;;;;;;;23.88;9.60;;;;;;;;;;5093294;28;20028;-35
2022/12/25 06:26:55;;;;;;;26.65;9.73;;;;;;;;;;5093349;28;20040;-35
2022/12/25 06:29:21;;;;;;;31.25;10.57;;;;;;;;;;5093208;28;20028;-35
2022/12/25 06:31:48;;;;;;;36.80;10.73;;;;;;;;;;5093151;28;20020;-35
2022/12/25 06:34:15;;;;;;;27.70;9.85;;;;;;;;;;5093103;28;20398;-35
2022/12/25 06:36:42;;;;;;;29.05;9.70;;;;;;;;;;5093049;28;20482;-35
2022/12/25 06:39:10;;;;;;;23.90;9.25;;;;;;;;;;5092347;28;20051;-35
2022/12/25 06:41:37;;;;;;;24.58;9.25;;;;;;;;;;5092880;28;20024;-35
2022/12/25 06:44:04;;;;;;;34.05;10.55;;;;;;;;;;5092640;28;20065;-35
2022/12/25 06:46:31;;;;;;;28.23;10.23;;;;;;;;;;5092969;28;20020;-35
2022/12/25 06:48:58;;;;;;;25.25;9.93;;;;;;;;;;5092897;28;20028;-35
2022/12/25 06:51:27;;;;;;;25.73;9.60;;;;;;;;;;5092735;28;20036;-35
2022/12/25 06:53:54;;;;;;;23.05;9.32;;;;;;;;;;5093063;28;20469;-35
2022/12/25 06:56:22;;;;;;;22.08;9.48;;;;;;;;;;5092813;28;20042;-35
2022/12/25 06:58:50;;;;;;;23.67;8.75;;;;;;;;;;5092758;28;20051;-35
2022/12/25 07:01:25;;;;;;;21.73;8.02;;;;;;;;;;5092613;28;20016;-35
2022/12/25 07:03:54;;;;;;;22.42;8.43;;;;;;;;;;5092583;28;20024;-35
2022/12/25 07:06:21;;;;;;;29.63;9.60;;;;;;;;;;5092671;28;20024;-35
2022/12/25 07:08:48;;;;;;;26.80;8.80;;;;;;;;;;5092627;28;20538;-35
2022/12/25 07:11:15;;;;;;;24.02;8.73;;;;;;;;;;5091112;28;20515;-35
2022/12/25 07:13:42;;;;;;;23.98;8.57;;;;;;;;;;5152316;23;20552;-34
2022/12/25 07:16:10;;;;;;;21.33;7.97;;;;;;;;;;5052882;28;20024;-34
2022/12/25 07:18:37;;;;;;;22.08;8.85;;;;;;;;;;5052463;28;20028;-34
2022/12/25 07:21:15;;;;;;;20.90;7.88;;;;;;;;;;5052127;28;20052;-34
2022/12/25 07:23:43;;;;;;;20.85;8.65;;;;;;;;;;5051477;28;20071;-34
2022/12/25 07:26:10;;;;;;;22.98;7.90;;;;;;;;;;5051980;28;20092;-35
2022/12/25 07:28:37;;;;;;;25.77;8.70;;;;;;;;;;5051920;28;20407;-34
2022/12/25 07:31:05;;;;;;;19.98;7.80;;;;;;;;;;5051968;28;20025;-34
2022/12/25 07:33:32;;;;;;;21.75;8.43;;;;;;;;;;5051808;28;20024;-34
2022/12/25 07:36:00;;;;;;;22.65;7.88;;;;;;;;;;5051747;28;20025;-34
2022/12/25 07:38:27;;;;;;;15.82;7.63;;;;;;;;;;5033867;28;20528;-34
2022/12/25 07:40:54;;;;;;;23.58;8.07;;;;;;;;;;5051897;28;20024;-34
2022/12/25 07:43:21;;;;;;;18.75;7.55;;;;;;;;;;5051795;28;20021;-34
2022/12/25 07:45:48;;;;;;;16.98;7.28;;;;;;;;;;5051685;28;20478;-34
2022/12/25 07:48:15;;;;;;;17.75;6.97;;;;;;;;;;5051793;28;20104;-34
2022/12/25 07:50:42;;;;;;;22.42;7.50;;;;;;;;;;5053510;28;20024;-35
2022/12/25 07:53:09;;;;;;;18.73;7.00;;;;;;;;;;5055665;28;20041;-34
2022/12/25 07:55:36;;;;;;;14.05;6.97;;;;;;;;;;5055834;28;20033;-35
2022/12/25 07:58:03;;;;;;;17.67;7.10;;;;;;;;;;5055815;28;20017;-34
2022/12/25 08:00:31;;;;;;;18.30;6.95;;;;;;;;;;5055771;28;20025;-34
2022/12/25 08:02:59;;;;;;;20.20;7.28;;;;;;;;;;5055499;28;20036;-34
2022/12/25 08:05:26;;;;;;;21.27;7.00;;;;;;;;;;5055660;28;20417;-34
2022/12/25 08:07:53;;;;;;;18.65;6.90;;;;;;;;;;5055427;28;20036;-34
2022/12/25 08:10:20;;;;;;;12.55;6.00;;;;;;;;;;5055567;28;20052;-34
2022/12/25 08:12:47;;;;;;;17.10;7.05;;;;;;;;;;5055138;28;20074;-35
2022/12/25 08:15:14;;;;;;;13.07;6.30;;;;;;;;;;5055519;28;20167;-34
2022/12/25 08:17:41;;;;;;;15.95;6.95;;;;;;;;;;5055438;28;20465;-34
2022/12/25 08:20:09;;;;;;;15.93;6.97;;;;;;;;;;5055430;28;20025;-34
2022/12/25 08:22:35;;;;;;;20.20;6.15;;;;;;;;;;5055307;28;20449;-34
2022/12/25 08:25:02;;;;;;;15.88;6.50;;;;;;;;;;5055330;28;20043;-35
2022/12/25 08:27:29;;;;;;;15.32;6.30;;;;;;;;;;5055470;28;20360;-35
2022/12/25 08:29:56;;;;;;;16.30;6.45;;;;;;;;;;5055308;28;20082;-34
2022/12/25 08:32:23;;;;;;;16.25;6.35;;;;;;;;;;5055105;28;20051;-34
2022/12/25 08:34:50;;;;;;;18.90;6.80;;;;;;;;;;5055143;28;20036;-34
2022/12/25 08:37:17;;;;;;;18.17;6.07;;;;;;;;;;5055151;28;20078;-35
2022/12/25 08:39:44;;;;;;;14.15;6.30;;;;;;;;;;5055137;28;20021;-34
2022/12/25 08:42:11;;;;;;;16.27;6.15;;;;;;;;;;5054972;28;20029;-34
2022/12/25 08:44:38;;;;;;;16.30;6.38;;;;;;;;;;5054840;28;20037;-34
2022/12/25 08:47:05;;;;;;;13.20;5.50;;;;;;;;;;5054940;28;20483;-34
2022/12/25 08:49:32;;;;;;;13.23;5.72;;;;;;;;;;5054920;28;20017;-35
2022/12/25 08:51:58;;;;;;;12.65;5.45;;;;;;;;;;5054885;28;20074;-34
2022/12/25 08:54:25;;;;;;;22.80;7.10;;;;;;;;;;5054581;28;20033;-35
2022/12/25 08:56:52;;;;;;;15.57;6.25;;;;;;;;;;5055051;28;20029;-34
2022/12/25 08:59:19;;;;;;;11.07;5.50;;;;;;;;;;5054703;28;20028;-35
2022/12/25 09:01:46;;;;;;;14.65;5.20;;;;;;;;;;5053989;28;20029;-34
2022/12/25 09:04:13;;;;;;;16.90;6.00;;;;;;;;;;5054456;28;20491;-34
2022/12/25 09:06:40;;;;;;;17.75;6.20;;;;;;;;;;5036946;28;20100;-34
2022/12/25 09:09:07;;;;;;;17.83;5.63;;;;;;;;;;5054579;28;20028;-34
2022/12/25 09:11:34;;;;;;;18.77;5.40;;;;;;;;;;5054520;28;20028;-34
2022/12/25 09:14:01;;;;;;;14.85;5.38;;;;;;;;;;5054171;28;20080;-34
2022/12/25 09:16:28;;;;;;;16.23;5.18;;;;;;;;;;5054428;28;20025;-34
2022/12/25 09:18:59;;;;;;;15.07;5.75;;;;;;;;;;5054326;28;20428;-34
2022/12/25 09:21:26;;;;;;;12.52;4.88;;;;;;;;;;5054366;28;20083;-35
2022/12/25 09:23:53;;;;;;;22.08;5.63;;;;;;;;;;5054370;28;20498;-34
2022/12/25 09:26:20;;;;;;;15.98;5.82;;;;;;;;;;5054251;28;20023;-34
2022/12/25 09:28:47;;;;;;;14.50;5.15;;;;;;;;;;5054169;28;20467;-35
2022/12/25 09:31:14;;;;;;;19.70;5.10;;;;;;;;;;5054093;28;20479;-34
2022/12/25 09:33:41;;;;;;;14.43;5.45;;;;;;;;;;5053963;28;20108;-34
2022/12/25 09:36:08;;;;;;;15.32;5.47;;;;;;;;;;5054068;28;20104;-34
2022/12/25 09:38:35;;;;;;;15.77;5.28;;;;;;;;;;5035891;28;20048;-34
2022/12/25 09:41:02;;;;;;;15.85;5.10;;;;;;;;;;5053788;28;20104;-35
2022/12/25 09:43:32;;;;;;;23.13;5.55;;;;;;;;;;5053719;28;20502;-34
2022/12/25 09:46:00;;;;;;;17.80;4.95;;;;;;;;;;5054082;28;20033;-34
2022/12/25 09:48:28;;;;;;;20.48;5.38;;;;;;;;;;5053509;28;20028;-35
2022/12/25 09:51:02;;;;;;;16.98;5.13;;;;;;;;;;5053747;28;20139;-34
2022/12/25 09:53:33;;;;;;;13.68;4.78;;;;;;;;;;5053529;28;20056;-34
2022/12/25 09:56:24;;;;;;;11.90;4.95;;;;;;;;;;5053669;28;20029;-34
2022/12/25 09:58:51;;;;;;;17.08;5.43;;;;;;;;;;5053615;28;20037;-34
2022/12/25 10:01:21;;;;;;;14.65;4.45;;;;;;;;;;5052222;28;20029;-34
2022/12/25 10:04:06;;;;;;;20.83;4.60;;;;;;;;;;5053537;28;20457;-34
2022/12/25 10:06:33;;;;;;;18.10;4.50;;;;;;;;;;5053512;28;20029;-35
2022/12/25 10:09:18;;;;;;;14.43;4.57;;;;;;;;;;5053417;28;20049;-34
2022/12/25 10:11:45;;;;;;;12.70;4.72;;;;;;;;;;5053347;28;20029;-34
2022/12/25 10:14:24;;;;;;;9.90;4.07;;;;;;;;;;5052016;28;20052;-34
2022/12/25 10:16:57;;;;;;;12.77;4.57;;;;;;;;;;5053286;28;20025;-34
2022/12/25 10:19:24;;;;;;;11.30;4.15;;;;;;;;;;5053177;28;20017;-34
2022/12/25 10:21:56;;;;;;;12.57;3.92;;;;;;;;;;5053191;28;20053;-35
2022/12/25 10:24:30;;;;;;;11.77;3.80;;;;;;;;;;5052783;28;20091;-35
2022/12/25 10:26:57;;;;;;;13.18;4.32;;;;;;;;;;5053104;28;20027;-34
2022/12/25 10:29:24;;;;;;;11.95;4.30;;;;;;;;;;5053062;28;20052;-34
2022/12/25 10:31:54;;;;;;;10.25;3.72;;;;;;;;;;5052998;28;20024;-34
2022/12/25 10:34:21;;;;;;;11.63;3.95;;;;;;;;;;5052810;28;20025;-34
2022/12/25 10:36:49;;;;;;;13.07;4.18;;;;;;;;;;5052896;28;20490;-35
2022/12/25 10:39:24;;;;;;;10.82;4.35;;;;;;;;;;5052843;28;20559;-34
2022/12/25 10:42:07;;;;;;;11.45;3.65;;;;;;;;;;5052739;28;20025;-34
2022/12/25 10:44:34;;;;;;;12.73;3.80;;;;;;;;;;5052566;28;20033;-34
2022/12/25 10:47:01;;;;;;;12.50;4.22;;;;;;;;;;5052894;28;20438;-34
2022/12/25 10:49:30;;;;;;;9.93;3.50;;;;;;;;;;5052650;28;20037;-34
2022/12/25 10:51:57;;;;;;;10.25;3.65;;;;;;;;;;5052615;28;20021;-34
2022/12/25 10:54:32;;;;;;;9.55;3.80;;;;;;;;;;5051045;28;20500;-35
2022/12/25 10:57:01;;;;;;;9.00;3.80;;;;;;;;;;5052536;28;20091;-34
2022/12/25 10:59:30;;;;;;;9.52;3.83;;;;;;;;;;5052515;28;20025;-34
2022/12/25 11:02:04;;;;;;;8.55;3.35;;;;;;;;;;5052461;28;20025;-34
2022/12/25 11:04:34;;;;;;;9.57;3.17;;;;;;;;;;5052313;28;20072;-34
2022/12/25 11:07:04;;;;;;;9.00;3.28;;;;;;;;;;5052358;28;20036;-34
2022/12/25 11:09:31;;;;;;;10.57;3.45;;;;;;;;;;5052317;28;20428;-35
2022/12/25 11:11:58;;;;;;;8.50;3.50;;;;;;;;;;5052268;28;20104;-34
2022/12/25 11:14:26;;;;;;;9.02;3.17;;;;;;;;;;5051928;28;20041;-35
2022/12/25 11:16:53;;;;;;;8.30;3.22;;;;;;;;;;5052424;28;20082;-34
2022/12/25 11:19:23;;;;;;;8.65;3.50;;;;;;;;;;5052136;28;20024;-34
2022/12/25 11:21:51;;;;;;;11.40;3.35;;;;;;;;;;5052162;28;20040;-35
2022/12/25 11:24:20;;;;;;;9.73;3.15;;;;;;;;;;5051987;28;20036;-34
2022/12/25 11:26:48;;;;;;;7.57;3.05;;;;;;;;;;5051887;28;20021;-34
2022/12/25 11:29:30;;;;;;;10.85;3.13;;;;;;;;;;5052042;28;20052;-35
2022/12/25 11:31:58;;;;;;;9.18;3.20;;;;;;;;;;5052165;28;20024;-35
2022/12/25 11:34:33;;;;;;;8.20;3.30;;;;;;;;;;5051873;28;20052;-34
2022/12/25 11:37:01;;;;;;;6.53;2.70;;;;;;;;;;5051961;28;20031;-35
2022/12/25 11:39:28;;;;;;;7.45;2.65;;;;;;;;;;5051903;28;20021;-34
2022/12/25 11:41:58;;;;;;;7.95;2.92;;;;;;;;;;5051874;28;20029;-35
2022/12/25 11:44:34;;;;;;;6.65;3.17;;;;;;;;;;5051673;28;20586;-35
2022/12/25 11:47:17;;;;;;;6.88;2.80;;;;;;;;;;5051784;28;20502;-35
2022/12/25 11:50:04;;;;;;;5.28;2.53;;;;;;;;;;5051785;28;20028;-35
2022/12/25 11:52:36;;;;;;;6.70;2.78;;;;;;;;;;5020814;28;20048;-34
2022/12/25 11:55:03;;;;;;;;;;;;;;;;;;5052151;28;20132;-35
2022/12/25 11:57:31;;;;;;;7.70;2.33;;;;;;;;;;5051651;28;19962;-34
2022/12/25 12:00:09;;;;;;;4.53;2.42;;;;;;;;;;5051713;28;20601;-34
2022/12/25 12:02:45;;;;;;;6.78;2.50;;;;;;;;;;5051612;28;20041;-35
2022/12/25 12:05:17;;;;;;;6.97;2.63;;;;;;;;;;5051576;28;20037;-34
2022/12/25 12:08:01;;;;;;;5.70;2.42;;;;;;;;;;5050276;28;20029;-35
2022/12/25 12:10:46;;;;;;;5.68;2.65;;;;;;;;;;5051762;28;20025;-34
2022/12/25 12:13:20;;;;;;;6.88;2.47;;;;;;;;;;5051294;28;20056;-35
2022/12/25 12:15:48;;;;;;;4.25;2.20;;;;;;;;;;5051524;28;20025;-35
2022/12/25 12:18:27;;;;;;;5.95;2.83;;;;;;;;;;5051532;28;20025;-35
2022/12/25 12:21:14;;;;;;;6.72;2.58;;;;;;;;;;5051475;28;20104;-34
2022/12/25 12:23:47;;;;;;;4.25;2.10;;;;;;;;;;5041120;28;20589;-34
2022/12/25 12:26:19;;;;;;;6.32;2.40;;;;;;;;;;5051477;28;20055;-34
2022/12/25 12:28:47;;;;;;;8.98;2.50;;;;;;;;;;5051345;28;20036;-34
2022/12/25 12:31:14;;;;;;;3.42;2.28;;;;;;;;;;5051387;28;20029;-35
2022/12/25 12:33:48;;;;;;;5.32;2.00;;;;;;;;;;5051584;28;20036;-35
2022/12/25 12:36:16;;;;;;;4.95;2.22;;;;;;;;;;5051361;28;20029;-34
2022/12/25 12:38:44;;;;;;;5.18;2.22;;;;;;;;;;5054496;28;20124;-35
2022/12/25 12:41:13;;;;;;;5.00;2.20;;;;;;;;;;5054968;28;20083;-35
2022/12/25 12:44:06;;;;;;;4.85;2.38;;;;;;;;;;5054926;28;20039;-35
2022/12/25 12:46:36;;;;;;;5.72;2.13;;;;;;;;;;5052407;28;20045;-35
2022/12/25 12:49:17;;;;;;;5.07;2.10;;;;;;;;;;5054868;28;20524;-34
2022/12/25 12:51:44;;;;;;;5.90;2.25;;;;;;;;;;5054819;28;20021;-35
2022/12/25 12:54:16;;;;;;;4.90;1.90;;;;;;;;;;5054697;28;20033;-34
2022/12/25 12:56:42;;;;;;;4.72;1.90;;;;;;;;;;5054704;28;20033;-34
2022/12/25 12:59:10;;;;;;;5.45;1.92;;;;;;;;;;5054683;28;20025;-34
2022/12/25 13:01:45;;;;;;;6.35;1.80;;;;;;;;;;5054838;28;20032;-34
2022/12/25 13:04:18;;;;;;;4.60;1.92;;;;;;;;;;5054375;28;20044;-34
2022/12/25 13:06:48;;;;;;;5.70;2.05;;;;;;;;;;5054525;28;20029;-34
2022/12/25 13:09:41;;;;;;;3.38;1.98;;;;;;;;;;5054513;28;20031;-34
2022/12/25 13:12:08;;;;;;;3.83;1.83;;;;;;;;;;5054385;28;20076;-34
2022/12/25 13:14:36;;;;;;;3.55;1.90;;;;;;;;;;5052949;28;20407;-35
2022/12/25 13:17:07;;;;;;;6.00;1.92;;;;;;;;;;5054451;28;20112;-34
2022/12/25 13:19:35;;;;;;;4.20;1.90;;;;;;;;;;5054168;28;20067;-34
2022/12/25 13:22:04;;;;;;;5.15;1.85;;;;;;;;;;5054169;28;20029;-34
2022/12/25 13:24:32;;;;;;;4.63;2.10;;;;;;;;;;5054076;28;20052;-34
2022/12/25 13:26:59;;;;;;;3.78;1.85;;;;;;;;;;5054214;28;20032;-34
2022/12/25 13:29:33;;;;;;;5.55;1.60;;;;;;;;;;5054083;28;20487;-34
2022/12/25 13:32:01;;;;;;;3.53;1.52;;;;;;;;;;5054021;28;20100;-35
2022/12/25 13:34:32;;;;;;;5.22;1.95;;;;;;;;;;5054329;28;20485;-34
2022/12/25 13:37:00;;;;;;;3.10;1.70;;;;;;;;;;5053945;28;20025;-35
2022/12/25 13:39:28;;;;;;;5.20;1.85;;;;;;;;;;5053915;28;20090;-34
2022/12/25 13:42:10;;;;;;;4.63;1.63;;;;;;;;;;5053809;28;20029;-34
2022/12/25 13:44:37;;;;;;;4.45;1.77;;;;;;;;;;5052648;28;20040;-34
2022/12/25 13:47:21;;;;;;;3.30;1.60;;;;;;;;;;5053817;28;20104;-35
2022/12/25 13:49:49;;;;;;;3.47;1.52;;;;;;;;;;5053567;28;20112;-35
2022/12/25 13:52:17;;;;;;;5.30;1.80;;;;;;;;;;5053633;28;20029;-35
2022/12/25 13:54:56;;;;;;;3.67;1.70;;;;;;;;;;5053757;28;20079;-34
2022/12/25 13:57:25;;;;;;;3.10;1.52;;;;;;;;;;5053644;28;20124;-35
2022/12/25 13:59:52;;;;;;;4.15;1.70;;;;;;;;;;5053561;28;20029;-35
2022/12/25 14:02:20;;;;;;;3.55;1.70;;;;;;;;;;5053500;28;20071;-34
2022/12/25 14:04:47;;;;;;;4.43;1.38;;;;;;;;;;5052044;28;20037;-35
2022/12/25 14:07:19;;;;;;;4.00;1.50;;;;;;;;;;5053431;28;20447;-34
2022/12/25 14:09:47;;;;;;;3.30;1.42;;;;;;;;;;5053359;28;20033;-35
2022/12/25 14:12:14;;;;;;;4.03;1.48;;;;;;;;;;5053483;28;20364;-35
2022/12/25 14:14:41;;;;;;;2.28;1.50;;;;;;;;;;5053003;28;20045;-35
2022/12/25 14:17:10;;;;;;;3.28;1.40;;;;;;;;;;5051978;28;20108;-35
2022/12/25 14:19:37;;;;;;;2.70;1.50;;;;;;;;;;5053409;28;20402;-34
2022/12/25 14:22:24;;;;;;;2.50;1.23;;;;;;;;;;5053080;28;20029;-34
2022/12/25 14:24:51;;;;;;;2.50;1.42;;;;;;;;;;5052962;28;20044;-35
2022/12/25 14:27:20;;;;;;;3.30;1.30;;;;;;;;;;5053007;28;20078;-34
2022/12/25 14:29:48;;;;;;;4.50;1.77;;;;;;;;;;5053072;28;20075;-34
2022/12/25 14:32:22;;;;;;;5.00;1.50;;;;;;;;;;5052739;28;20040;-34
2022/12/25 14:34:52;;;;;;;3.83;1.55;;;;;;;;;;5052907;28;20039;-34
2022/12/25 14:37:21;;;;;;;2.90;1.50;;;;;;;;;;5052777;28;20033;-35
2022/12/25 14:40:20;;;;;;;3.83;1.42;;;;;;;;;;5052743;28;20033;-35
2022/12/25 14:43:01;;;;;;;6.05;1.92;;;;;;;;;;5019484;28;20533;-35
2022/12/25 14:45:30;;;;;;;4.80;1.90;;;;;;;;;;5052592;28;20440;-35
2022/12/25 14:48:03;;;;;;;5.88;1.77;;;;;;;;;;5052625;28;20055;-35
2022/12/25 14:50:29;;;;;;;;;;;;;;;;;;5053295;28;20036;-35
2022/12/25 14:52:57;;;;;;;2.97;1.40;;;;;;;;;;5052545;28;19909;-35
2022/12/25 14:55:26;;;;;;;5.32;1.75;;;;;;;;;;5052514;28;20028;-35
2022/12/25 14:58:13;;;;;;;3.85;1.38;;;;;;;;;;5052547;28;20438;-34
2022/12/25 15:00:40;;;;;;;3.08;1.17;;;;;;;;;;5051812;28;20098;-34
2022/12/25 15:03:17;;;;;;;4.68;1.25;;;;;;;;;;5052325;28;20021;-35
2022/12/25 15:05:44;;;;;;;2.40;1.30;;;;;;;;;;5052395;28;20032;-35
2022/12/25 15:08:11;;;;;;;3.30;1.45;;;;;;;;;;5052285;28;20035;-35
2022/12/25 15:10:38;;;;;;;3.35;1.58;;;;;;;;;;5052579;28;20509;-35
2022/12/25 15:13:05;;;;;;;5.60;1.40;;;;;;;;;;5052055;28;20029;-35
2022/12/25 15:15:33;;;;;;;9.15;1.90;;;;;;;;;;5052173;28;20056;-35
2022/12/25 15:18:01;;;;;;;3.35;1.50;;;;;;;;;;5052228;28;20052;-34
2022/12/25 15:20:30;;;;;;;4.70;1.73;;;;;;;;;;5052157;28;20037;-35
2022/12/25 15:22:59;;;;;;;5.63;1.45;;;;;;;;;;5051932;28;20033;-35
2022/12/25 15:25:27;;;;;;;4.32;1.63;;;;;;;;;;5051930;28;20047;-35
2022/12/25 15:27:54;;;;;;;4.40;1.80;;;;;;;;;;5051950;28;20444;-34
2022/12/25 15:30:22;;;;;;;5.28;1.50;;;;;;;;;;5052042;28;20090;-35
2022/12/25 15:32:49;;;;;;;4.05;1.20;;;;;;;;;;5051952;28;20029;-35
2022/12/25 15:35:18;;;;;;;5.38;1.20;;;;;;;;;;5051796;28;20029;-34
2022/12/25 15:37:45;;;;;;;4.50;1.40;;;;;;;;;;5051901;28;20032;-34
2022/12/25 15:40:13;;;;;;;6.63;1.40;;;;;;;;;;5051896;28;20040;-34
2022/12/25 15:42:41;;;;;;;3.35;1.20;;;;;;;;;;5051971;28;20378;-35
2022/12/25 15:45:21;;;;;;;1.88;1.00;;;;;;;;;;5051676;28;20112;-35
2022/12/25 15:47:49;;;;;;;4.82;1.27;;;;;;;;;;5051846;28;20032;-35
2022/12/25 15:50:16;;;;;;;3.38;1.42;;;;;;;;;;5051833;28;20025;-35
2022/12/25 15:52:43;;;;;;;3.92;1.60;;;;;;;;;;5051695;28;20027;-35
2022/12/25 15:55:10;;;;;;;3.97;1.45;;;;;;;;;;5051787;28;20025;-35
2022/12/25 15:57:39;;;;;;;3.65;1.40;;;;;;;;;;5051729;28;20094;-34
2022/12/25 16:00:07;;;;;;;4.32;1.55;;;;;;;;;;5051591;28;20028;-35
2022/12/25 16:02:34;;;;;;;8.52;1.50;;;;;;;;;;5051598;28;20424;-35
2022/12/25 16:05:01;;;;;;;6.68;1.50;;;;;;;;;;5051564;28;20033;-35
2022/12/25 16:07:30;;;;;;;5.28;1.52;;;;;;;;;;5051639;28;20033;-35
2022/12/25 16:09:57;;;;;;;5.68;1.20;;;;;;;;;;5051652;28;20094;-35
2022/12/25 16:12:24;;;;;;;2.88;1.40;;;;;;;;;;5054333;28;20074;-35
2022/12/25 16:14:51;;;;;;;5.70;1.60;;;;;;;;;;5055396;28;20052;-35
2022/12/25 16:17:18;;;;;;;4.22;1.50;;;;;;;;;;5055541;28;20025;-35
2022/12/25 16:19:45;;;;;;;6.15;1.55;;;;;;;;;;5055391;28;20057;-35
2022/12/25 16:22:13;;;;;;;4.60;1.30;;;;;;;;;;5055329;28;20029;-35
2022/12/25 16:24:40;;;;;;;3.28;1.40;;;;;;;;;;5055334;28;20545;-35
2022/12/25 16:27:07;;;;;;;4.38;1.38;;;;;;;;;;5055377;28;20028;-35